createdAt,value
2022-09-15T00:00:57.785Z,17.1
2022-09-15T00:02:02.262Z,17.2
2022-09-15T00:03:06.437Z,17.2
2022-09-15T00:04:10.739Z,17.4
2022-09-15T00:05:14.989Z,17.4
2022-09-15T00:06:19.515Z,17.5
2022-09-15T00:07:23.898Z,17.3
2022-09-15T00:08:28.407Z,17.4
2022-09-15T00:09:32.927Z,17.5
2022-09-15T00:10:37.218Z,17.3
2022-09-15T00:11:51.535Z,17.2
2022-09-15T00:12:55.891Z,17.3
2022-09-15T00:14:00.176Z,17.4
2022-09-15T00:15:04.534Z,17.3
2022-09-15T00:16:08.969Z,17.2
2022-09-15T00:17:13.181Z,17.4
2022-09-15T00:18:17.411Z,17.2
2022-09-15T00:19:21.893Z,17.1
2022-09-15T00:20:26.165Z,17.2
2022-09-15T00:21:30.507Z,17.1
2022-09-15T00:22:34.580Z,17.3
2022-09-15T00:23:39.015Z,17.1
2022-09-15T00:24:44.055Z,17.4
2022-09-15T00:25:48.501Z,17.2
2022-09-15T00:26:52.904Z,17.4
2022-09-15T00:27:57.740Z,17.5
2022-09-15T00:29:02.151Z,17.1
2022-09-15T00:30:06.872Z,17
2022-09-15T00:31:11.719Z,16.8
2022-09-15T00:32:16.319Z,16.8
2022-09-15T00:33:20.499Z,16.9
2022-09-15T00:34:24.786Z,16.9
2022-09-15T00:35:29.311Z,16.9
2022-09-15T00:36:33.627Z,17
2022-09-15T00:37:37.991Z,17.3
2022-09-15T00:38:42.180Z,17.2
2022-09-15T00:39:46.649Z,17.2
2022-09-15T00:41:54.150Z,17
2022-09-15T00:42:58.496Z,16.9
2022-09-15T00:44:02.682Z,17
2022-09-15T00:45:06.967Z,17.2
2022-09-15T00:46:11.866Z,16.9
2022-09-15T00:47:19.447Z,16.9
2022-09-15T00:48:20.430Z,17.1
2022-09-15T00:49:24.722Z,17
2022-09-15T00:50:28.991Z,16.9
2022-09-15T00:51:33.254Z,17.1
2022-09-15T00:52:37.582Z,17.1
2022-09-15T00:53:44.510Z,16.9
2022-09-15T00:54:48.795Z,16.8
2022-09-15T00:56:01.202Z,17
2022-09-15T00:57:05.730Z,16.9
2022-09-15T00:58:10.066Z,17
2022-09-15T01:00:44.747Z,17.2
2022-09-15T01:01:51.970Z,17.1
2022-09-15T01:02:56.304Z,17.3
2022-09-15T01:04:00.699Z,17.1
2022-09-15T01:05:05.237Z,17.4
2022-09-15T01:06:09.774Z,17.4
2022-09-15T01:07:19.198Z,17.2
2022-09-15T01:08:31.262Z,17.5
2022-09-15T01:09:35.610Z,17.2
2022-09-15T01:10:42.651Z,17.2
2022-09-15T01:12:50.407Z,17.2
2022-09-15T01:13:54.578Z,17.1
2022-09-15T01:14:58.994Z,17.1
2022-09-15T01:16:03.366Z,17.2
2022-09-15T01:17:17.633Z,17.2
2022-09-15T01:18:21.998Z,17.3
2022-09-15T01:19:31.350Z,17.1
2022-09-15T01:20:45.854Z,17.1
2022-09-15T01:21:56.870Z,17
2022-09-15T01:23:02.445Z,16.9
2022-09-15T01:24:12.573Z,17
2022-09-15T01:25:27.069Z,17.2
2022-09-15T01:26:41.159Z,17
2022-09-15T01:27:50.445Z,17.3
2022-09-15T01:29:04.950Z,17.3
2022-09-15T01:30:14.439Z,17.2
2022-09-15T01:31:21.732Z,17.2
2022-09-15T01:32:26.089Z,17.3
2022-09-15T01:33:38.357Z,17.3
2022-09-15T01:34:45.412Z,17.5
2022-09-15T01:35:55.315Z,17.7
2022-09-15T01:37:09.842Z,17.6
2022-09-15T01:38:14.382Z,17.8
2022-09-15T01:39:28.714Z,17.7
2022-09-15T01:40:33.027Z,17.2
2022-09-15T01:41:39.858Z,17.1
2022-09-15T01:42:49.242Z,17.3
2022-09-15T01:43:53.491Z,17.5
2022-09-15T01:45:02.951Z,17.3
2022-09-15T01:46:07.379Z,17.2
2022-09-15T01:47:12.142Z,17.2
2022-09-15T01:48:16.411Z,17.4
2022-09-15T01:49:20.802Z,17.4
2022-09-15T01:50:27.827Z,17.6
2022-09-15T01:51:35.326Z,17.5
2022-09-15T01:52:39.494Z,17.4
2022-09-15T01:53:43.911Z,17.5
2022-09-15T01:54:48.510Z,17.6
2022-09-15T01:55:52.930Z,17.6
2022-09-15T01:56:57.352Z,17.5
2022-09-15T01:58:01.762Z,17.2
2022-09-15T01:59:06.050Z,17.4
2022-09-15T02:00:10.256Z,17.4
2022-09-15T02:01:14.685Z,17.3
2022-09-15T02:02:26.913Z,17.6
2022-09-15T02:03:39.298Z,17.5
2022-09-15T02:04:49.271Z,17.5
2022-09-15T02:05:53.510Z,17.8
2022-09-15T02:08:06.378Z,17.8
2022-09-15T02:09:18.699Z,17.6
2022-09-15T02:10:22.938Z,17.6
2022-09-15T02:11:32.834Z,17.7
2022-09-15T02:12:37.194Z,17.6
2022-09-15T02:13:41.647Z,17.4
2022-09-15T02:14:55.974Z,17.6
2022-09-15T02:16:03.276Z,17.5
2022-09-15T02:17:13.482Z,17.7
2022-09-15T02:18:17.786Z,17.6
2022-09-15T02:19:21.994Z,17.7
2022-09-15T02:20:34.360Z,17.3
2022-09-15T02:21:41.542Z,17.5
2022-09-15T02:22:51.161Z,17.4
2022-09-15T02:23:55.502Z,17.4
2022-09-15T02:25:00.506Z,17.5
2022-09-15T02:26:07.804Z,17.4
2022-09-15T02:27:12.158Z,17.5
2022-09-15T02:28:16.562Z,17.3
2022-09-15T02:29:20.986Z,17.3
2022-09-15T02:30:25.396Z,17.5
2022-09-15T02:31:29.700Z,17.5
2022-09-15T02:33:37.408Z,17.2
2022-09-15T02:34:41.773Z,17.3
2022-09-15T02:35:46.449Z,17.4
2022-09-15T02:36:50.614Z,17.3
2022-09-15T02:37:54.969Z,17.2
2022-09-15T02:38:59.110Z,17.2
2022-09-15T02:40:03.455Z,17.2
2022-09-15T02:41:07.634Z,17.3
2022-09-15T02:42:11.878Z,17.4
2022-09-15T02:43:16.321Z,17.3
2022-09-15T02:44:20.814Z,17.2
2022-09-15T02:45:25.160Z,17.3
2022-09-15T02:46:29.397Z,17.2
2022-09-15T02:47:33.817Z,17.4
2022-09-15T02:48:38.066Z,17.4
2022-09-15T02:49:42.362Z,17.6
2022-09-15T02:50:46.685Z,17.3
2022-09-15T02:51:51.034Z,17.5
2022-09-15T02:52:55.289Z,17.3
2022-09-15T02:53:59.437Z,17.3
2022-09-15T02:55:03.889Z,17.3
2022-09-15T02:56:08.950Z,17.2
2022-09-15T02:57:13.217Z,17.2
2022-09-15T02:58:17.516Z,17.4
2022-09-15T02:59:21.877Z,17.3
2022-09-15T03:00:26.366Z,17.2
2022-09-15T03:01:30.778Z,17.2
2022-09-15T03:02:35.089Z,17.1
2022-09-15T03:03:42.833Z,17.2
2022-09-15T03:04:43.827Z,17.4
2022-09-15T03:05:48.137Z,17.3
2022-09-15T03:06:52.701Z,17.4
2022-09-15T03:07:57.023Z,17.1
2022-09-15T03:09:01.209Z,17.3
2022-09-15T03:10:05.513Z,17.3
2022-09-15T03:11:09.737Z,17.3
2022-09-15T03:12:14.134Z,17.1
2022-09-15T03:13:18.591Z,17.1
2022-09-15T03:14:23.301Z,17.2
2022-09-15T03:15:27.949Z,17.2
2022-09-15T03:16:32.310Z,17.1
2022-09-15T03:17:36.573Z,17.2
2022-09-15T03:18:40.817Z,17.3
2022-09-15T03:19:45.246Z,17.4
2022-09-15T03:20:49.534Z,17.5
2022-09-15T03:21:53.758Z,17.7
2022-09-15T03:22:58.341Z,17.4
2022-09-15T03:24:02.613Z,17.5
2022-09-15T03:25:06.785Z,17.6
2022-09-15T03:26:11.159Z,17.5
2022-09-15T03:27:15.593Z,17.8
2022-09-15T03:28:19.941Z,17.8
2022-09-15T03:29:24.229Z,18
2022-09-15T03:30:28.498Z,17.8
2022-09-15T03:31:32.860Z,17.6
2022-09-15T03:32:37.157Z,17.7
2022-09-15T03:33:41.513Z,17.4
2022-09-15T03:34:45.758Z,17.5
2022-09-15T03:35:50.252Z,17.3
2022-09-15T03:36:54.712Z,17.5
2022-09-15T03:37:59.393Z,17.7
2022-09-15T03:39:03.645Z,17.4
2022-09-15T03:40:07.874Z,17.6
2022-09-15T03:41:12.041Z,17.7
2022-09-15T03:42:16.633Z,17.4
2022-09-15T03:43:21.231Z,17.4
2022-09-15T03:44:25.417Z,17.6
2022-09-15T03:45:29.771Z,17.5
2022-09-15T03:46:34.149Z,17.4
2022-09-15T03:47:38.419Z,17.3
2022-09-15T03:48:42.981Z,17.4
2022-09-15T03:49:47.494Z,17.4
2022-09-15T03:50:51.941Z,17.3
2022-09-15T03:51:56.487Z,17.3
2022-09-15T03:53:01.157Z,17.3
2022-09-15T03:54:05.429Z,17.3
2022-09-15T03:55:09.913Z,17.2
2022-09-15T03:56:14.269Z,17.4
2022-09-15T03:57:23.706Z,17.3
2022-09-15T03:58:30.717Z,17.4
2022-09-15T03:59:32.378Z,17.3
2022-09-15T04:00:36.833Z,17.4
2022-09-15T04:01:41.071Z,17.5
2022-09-15T04:02:45.265Z,17.5
2022-09-15T04:03:51.289Z,17.4
2022-09-15T04:04:54.109Z,17.4
2022-09-15T04:05:58.349Z,17.5
2022-09-15T04:07:02.764Z,17.6
2022-09-15T04:08:06.919Z,17.6
2022-09-15T04:09:11.289Z,17.6
2022-09-15T04:10:15.427Z,17.4
2022-09-15T04:11:20.021Z,17.5
2022-09-15T04:12:24.353Z,17.4
2022-09-15T04:13:28.920Z,17.4
2022-09-15T04:14:32.990Z,17.3
2022-09-15T04:16:40.976Z,17.3
2022-09-15T04:17:45.119Z,17.2
2022-09-15T04:18:49.591Z,17.4
2022-09-15T04:19:54.147Z,17.5
2022-09-15T04:20:58.501Z,17.4
2022-09-15T04:23:07.268Z,17.5
2022-09-15T04:24:11.707Z,17.4
2022-09-15T04:25:16.077Z,17.5
2022-09-15T04:26:20.481Z,17.3
2022-09-15T04:27:28.013Z,17.5
2022-09-15T04:28:32.637Z,17.6
2022-09-15T04:29:36.965Z,17.6
2022-09-15T04:30:41.153Z,17.5
2022-09-15T04:31:45.491Z,17.6
2022-09-15T04:32:49.570Z,17.7
2022-09-15T04:33:53.825Z,17.5
2022-09-15T04:34:58.085Z,17.4
2022-09-15T04:36:02.321Z,17.5
2022-09-15T04:37:06.897Z,17.5
2022-09-15T04:38:11.179Z,17.5
2022-09-15T04:39:15.577Z,17.6
2022-09-15T04:40:19.933Z,17.6
2022-09-15T04:41:24.193Z,17.7
2022-09-15T04:42:28.421Z,17.6
2022-09-15T04:43:32.749Z,17.7
2022-09-15T04:44:37.113Z,17.7
2022-09-15T04:45:41.430Z,17.7
2022-09-15T04:46:45.645Z,17.5
2022-09-15T04:47:49.883Z,17.5
2022-09-15T04:48:54.065Z,17.6
2022-09-15T04:51:01.809Z,17.5
2022-09-15T04:52:09.541Z,17.5
2022-09-15T04:53:11.131Z,17.5
2022-09-15T04:54:15.788Z,17.4
2022-09-15T04:55:20.425Z,17.4
2022-09-15T04:56:28.337Z,17.5
2022-09-15T04:57:32.961Z,17.5
2022-09-15T04:58:38.008Z,17.4
2022-09-15T04:59:42.397Z,17.5
2022-09-15T05:00:46.666Z,17.7
2022-09-15T05:01:50.844Z,17.5
2022-09-15T05:02:55.077Z,17.5
2022-09-15T05:03:59.313Z,17.5
2022-09-15T05:05:03.761Z,17.7
2022-09-15T05:06:08.553Z,17.8
2022-09-15T05:07:12.937Z,18
2022-09-15T05:08:17.253Z,17.7
2022-09-15T05:09:21.570Z,17.6
2022-09-15T05:10:25.677Z,17.7
2022-09-15T05:11:29.985Z,17.6
2022-09-15T05:12:34.290Z,17.6
2022-09-15T05:13:38.613Z,17.8
2022-09-15T05:14:43.162Z,17.7
2022-09-15T05:16:51.102Z,17.7
2022-09-15T05:17:55.526Z,17.8
2022-09-15T05:18:59.701Z,17.9
2022-09-15T05:20:04.001Z,17.8
2022-09-15T05:21:08.446Z,17.8
2022-09-15T05:22:12.681Z,17.7
2022-09-15T05:23:16.914Z,17.8
2022-09-15T05:24:21.473Z,17.9
2022-09-15T05:25:25.796Z,17.8
2022-09-15T05:26:30.064Z,17.7
2022-09-15T05:27:34.493Z,17.8
2022-09-15T05:28:39.610Z,17.8
2022-09-15T05:29:44.093Z,17.7
2022-09-15T05:31:54.871Z,17.8
2022-09-15T05:32:59.460Z,17.8
2022-09-15T05:34:03.796Z,17.9
2022-09-15T05:35:08.101Z,17.9
2022-09-15T05:36:12.605Z,17.9
2022-09-15T05:37:16.953Z,17.7
2022-09-15T05:38:21.625Z,17.9
2022-09-15T05:39:26.349Z,18.1
2022-09-15T05:40:30.907Z,18.2
2022-09-15T05:41:35.077Z,18.1
2022-09-15T05:42:39.545Z,18.2
2022-09-15T05:43:44.449Z,18.3
2022-09-15T05:44:48.741Z,18.1
2022-09-15T05:45:53.189Z,18.3
2022-09-15T05:46:58.594Z,18.5
2022-09-15T05:48:02.909Z,18.5
2022-09-15T05:49:07.337Z,18.5
2022-09-15T05:50:12.013Z,18.4
2022-09-15T05:51:16.250Z,18.5
2022-09-15T05:52:20.536Z,18.4
2022-09-15T05:53:24.803Z,18.6
2022-09-15T05:54:29.050Z,18.6
2022-09-15T05:55:33.526Z,18.6
2022-09-15T05:56:37.872Z,18.5
2022-09-15T05:57:42.478Z,18.4
2022-09-15T05:58:47.021Z,18.7
2022-09-15T05:59:51.821Z,18.5
2022-09-15T06:00:56.017Z,18.5
2022-09-15T06:02:05.458Z,18.6
2022-09-15T06:04:13.647Z,18.3
2022-09-15T06:05:17.993Z,18.3
2022-09-15T06:06:23.094Z,18.2
2022-09-15T06:07:27.393Z,18.1
2022-09-15T06:08:32.026Z,18
2022-09-15T06:09:36.249Z,18.1
2022-09-15T06:10:40.557Z,18
2022-09-15T06:11:44.867Z,17.9
2022-09-15T06:12:49.117Z,17.7
2022-09-15T06:13:53.749Z,17.8
2022-09-15T06:15:02.941Z,17.7
2022-09-15T06:16:08.355Z,17.4
2022-09-15T06:17:15.601Z,17.5
2022-09-15T06:18:19.869Z,17.3
2022-09-15T06:19:24.104Z,17.5
2022-09-15T06:20:28.353Z,17.7
2022-09-15T06:21:32.908Z,17.6
2022-09-15T06:22:38.215Z,17.8
2022-09-15T06:23:45.002Z,17.8
2022-09-15T06:24:48.403Z,17.5
2022-09-15T06:25:53.767Z,17.2
2022-09-15T06:26:58.209Z,17.2
2022-09-15T06:28:03.691Z,17.5
2022-09-15T06:29:08.187Z,17.5
2022-09-15T06:30:12.539Z,17.5
2022-09-15T06:31:17.104Z,17.4
2022-09-15T06:32:22.120Z,17.6
2022-09-15T06:33:27.249Z,17.3
2022-09-15T06:36:06.044Z,17.6
2022-09-15T06:37:13.096Z,17.7
2022-09-15T06:38:17.490Z,17.9
2022-09-15T06:39:22.967Z,17.8
2022-09-15T06:40:27.427Z,17.9
2022-09-15T06:41:47.317Z,17.9
2022-09-15T06:42:36.324Z,17.7
2022-09-15T06:43:40.796Z,17.5
2022-09-15T06:44:45.895Z,17.8
2022-09-15T06:45:51.303Z,18
2022-09-15T06:46:55.527Z,17.9
2022-09-15T06:48:23.224Z,17.9
2022-09-15T06:49:08.403Z,17.6
2022-09-15T06:50:12.675Z,17.8
2022-09-15T06:51:17.525Z,17.8
2022-09-15T06:52:22.331Z,17.8
2022-09-15T06:53:26.599Z,17.8
2022-09-15T06:54:30.839Z,18
2022-09-15T06:55:35.538Z,18.1
2022-09-15T06:56:39.799Z,18.2
2022-09-15T06:57:44.488Z,18.2
2022-09-15T06:58:48.848Z,18.1
2022-09-15T06:59:53.287Z,18.3
2022-09-15T07:00:58.039Z,18.3
2022-09-15T07:02:05.028Z,18.4
2022-09-15T07:03:07.315Z,18.5
2022-09-15T07:04:11.959Z,18.5
2022-09-15T07:05:16.315Z,18.3
2022-09-15T07:06:20.915Z,17.8
2022-09-15T07:07:25.175Z,17.7
2022-09-15T07:08:29.767Z,18
2022-09-15T07:09:35.558Z,18
2022-09-15T07:10:40.672Z,17.9
2022-09-15T07:11:44.914Z,18
2022-09-15T07:12:49.577Z,18
2022-09-15T07:13:53.798Z,18
2022-09-15T07:14:58.327Z,17.8
2022-09-15T07:16:02.656Z,17.9
2022-09-15T07:17:06.991Z,17.5
2022-09-15T07:18:11.342Z,17.7
2022-09-15T07:19:16.177Z,17.4
2022-09-15T07:20:20.424Z,17.9
2022-09-15T07:21:24.791Z,17.7
2022-09-15T07:22:29.228Z,18
2022-09-15T07:23:33.863Z,18.2
2022-09-15T07:24:38.259Z,18.2
2022-09-15T07:25:42.564Z,18.1
2022-09-15T07:26:46.919Z,18
2022-09-15T07:27:51.347Z,18.1
2022-09-15T07:28:55.959Z,18.1
2022-09-15T07:30:00.779Z,18
2022-09-15T07:31:05.566Z,18.1
2022-09-15T07:32:10.179Z,17.9
2022-09-15T07:33:14.568Z,17.8
2022-09-15T07:34:18.817Z,18
2022-09-15T07:35:23.438Z,18
2022-09-15T07:36:27.802Z,18.2
2022-09-15T07:37:32.054Z,18.3
2022-09-15T07:39:40.370Z,18.1
2022-09-15T07:40:44.566Z,18.4
2022-09-15T07:41:49.386Z,18.5
2022-09-15T07:43:57.610Z,18.6
2022-09-15T07:45:02.514Z,18.7
2022-09-15T07:46:07.280Z,18.6
2022-09-15T07:47:12.175Z,18.7
2022-09-15T07:48:16.759Z,18.6
2022-09-15T07:49:21.173Z,18.5
2022-09-15T07:50:25.738Z,18.5
2022-09-15T07:51:30.024Z,18.5
2022-09-15T07:52:35.062Z,18.3
2022-09-15T07:53:40.230Z,18.5
2022-09-15T07:54:44.532Z,18.6
2022-09-15T07:55:49.254Z,18.8
2022-09-15T07:56:53.510Z,18.6
2022-09-15T07:57:57.750Z,18.4
2022-09-15T07:59:02.030Z,18.6
2022-09-15T08:00:06.342Z,18.7
2022-09-15T08:01:11.271Z,18.8
2022-09-15T08:02:15.740Z,18.8
2022-09-15T08:03:20.272Z,18.7
2022-09-15T08:04:24.819Z,18.7
2022-09-15T08:05:29.278Z,18.7
2022-09-15T08:06:33.756Z,18.7
2022-09-15T08:08:41.766Z,18.8
2022-09-15T08:10:50.074Z,18.9
2022-09-15T08:11:54.814Z,19
2022-09-15T08:13:03.094Z,18.9
2022-09-15T08:14:09.098Z,19
2022-09-15T08:15:13.489Z,18.9
2022-09-15T08:16:17.974Z,19.1
2022-09-15T08:17:22.440Z,19
2022-09-15T08:18:26.755Z,18.9
2022-09-15T08:19:31.012Z,18.7
2022-09-15T08:20:35.443Z,18.9
2022-09-15T08:21:39.990Z,19
2022-09-15T08:22:44.503Z,19.1
2022-09-15T08:23:49.166Z,19.2
2022-09-15T08:24:56.844Z,19.2
2022-09-15T08:26:01.094Z,19.1
2022-09-15T08:27:09.622Z,19.2
2022-09-15T08:28:13.878Z,19.1
2022-09-15T08:29:18.167Z,18.7
2022-09-15T08:30:22.489Z,19
2022-09-15T08:31:27.111Z,19.2
2022-09-15T08:32:31.502Z,19.1
2022-09-15T08:33:35.893Z,19.2
2022-09-15T08:34:40.379Z,19.3
2022-09-15T08:35:44.573Z,19.3
2022-09-15T08:36:48.801Z,19.2
2022-09-15T08:37:53.920Z,19.3
2022-09-15T08:38:58.151Z,19.4
2022-09-15T08:40:02.913Z,19.2
2022-09-15T08:41:07.431Z,19.2
2022-09-15T08:42:11.814Z,19.1
2022-09-15T08:43:16.234Z,19.1
2022-09-15T08:44:20.610Z,19.1
2022-09-15T08:45:29.957Z,18.8
2022-09-15T08:46:34.541Z,19
2022-09-15T08:47:41.805Z,19.1
2022-09-15T08:48:46.393Z,19.2
2022-09-15T08:49:52.408Z,19.2
2022-09-15T08:50:56.293Z,19.3
2022-09-15T08:52:00.550Z,19.4
2022-09-15T08:53:05.929Z,19.4
2022-09-15T08:54:18.391Z,19.4
2022-09-15T08:55:23.037Z,19.5
2022-09-15T08:56:37.641Z,19.5
2022-09-15T08:57:42.845Z,19.3
2022-09-15T08:58:47.137Z,19.4
2022-09-15T08:59:51.685Z,19.2
2022-09-15T09:00:55.953Z,19.4
2022-09-15T09:03:17.010Z,19.5
2022-09-15T09:04:26.929Z,19.5
2022-09-15T09:05:39.457Z,19.4
2022-09-15T09:06:51.873Z,19.3
2022-09-15T09:07:59.993Z,19.5
2022-09-15T09:09:10.480Z,19.6
2022-09-15T09:10:15.042Z,19.5
2022-09-15T09:11:27.135Z,19.7
2022-09-15T09:12:41.508Z,19.4
2022-09-15T09:13:54.917Z,19.2
2022-09-15T09:15:02.276Z,19.4
2022-09-15T09:16:16.795Z,19.5
2022-09-15T09:17:31.377Z,19.6
2022-09-15T09:18:46.662Z,19.6
2022-09-15T09:19:59.173Z,19.6
2022-09-15T09:21:11.029Z,19.6
2022-09-15T09:22:25.694Z,19.5
2022-09-15T09:23:36.017Z,19.3
2022-09-15T09:24:45.401Z,19.5
2022-09-15T09:25:52.872Z,19.4
2022-09-15T09:26:57.172Z,19.5
2022-09-15T09:28:01.589Z,19.4
2022-09-15T09:29:05.897Z,19.4
2022-09-15T09:30:12.920Z,19.5
2022-09-15T09:31:17.367Z,19.5
2022-09-15T09:32:22.062Z,19.6
2022-09-15T09:33:26.098Z,19.5
2022-09-15T09:34:30.429Z,19.6
2022-09-15T09:35:37.584Z,19.6
2022-09-15T09:36:44.729Z,19.5
2022-09-15T09:37:59.017Z,19.5
2022-09-15T09:39:03.332Z,19.5
2022-09-15T09:40:07.669Z,19
2022-09-15T09:41:14.731Z,19.3
2022-09-15T09:42:18.977Z,19.4
2022-09-15T09:43:23.305Z,19.5
2022-09-15T09:44:27.833Z,19.5
2022-09-15T09:45:36.040Z,19.5
2022-09-15T09:46:40.718Z,19.5
2022-09-15T09:47:45.296Z,19.6
2022-09-15T09:48:49.685Z,19.7
2022-09-15T09:49:56.961Z,19.6
2022-09-15T09:51:01.497Z,19.7
2022-09-15T09:52:07.238Z,19.9
2022-09-15T09:53:11.497Z,19.7
2022-09-15T09:54:26.304Z,19.7
2022-09-15T09:55:31.039Z,19.6
2022-09-15T09:57:40.749Z,19.8
2022-09-15T09:58:44.202Z,19.8
2022-09-15T09:59:48.522Z,19.8
2022-09-15T10:00:53.013Z,19.9
2022-09-15T10:01:57.675Z,19.9
2022-09-15T10:03:12.252Z,19.9
2022-09-15T10:04:16.386Z,20
2022-09-15T10:05:20.745Z,20
2022-09-15T10:06:25.035Z,19.9
2022-09-15T10:07:29.429Z,20
2022-09-15T10:08:33.773Z,20
2022-09-15T10:09:37.961Z,20.1
2022-09-15T10:10:42.270Z,20
2022-09-15T10:11:54.417Z,20.1
2022-09-15T10:13:01.691Z,20.1
2022-09-15T10:14:05.894Z,20.2
2022-09-15T10:15:15.407Z,20.2
2022-09-15T10:16:22.908Z,20
2022-09-15T10:17:27.061Z,20.1
2022-09-15T10:18:36.621Z,20.1
2022-09-15T10:19:40.883Z,19.9
2022-09-15T10:20:50.193Z,20
2022-09-15T10:21:54.483Z,19.9
2022-09-15T10:22:59.199Z,20
2022-09-15T10:24:03.530Z,20
2022-09-15T10:25:17.981Z,20
2022-09-15T10:26:22.217Z,20
2022-09-15T10:27:32.588Z,20.1
2022-09-15T10:28:36.793Z,19.9
2022-09-15T10:29:41.211Z,19.9
2022-09-15T10:30:45.465Z,19.9
2022-09-15T10:32:00.214Z,20
2022-09-15T10:33:14.652Z,20
2022-09-15T10:34:24.146Z,20.1
2022-09-15T10:35:28.566Z,20
2022-09-15T10:36:33.954Z,20.1
2022-09-15T10:37:38.889Z,20.1
2022-09-15T10:38:46.185Z,20.1
2022-09-15T10:39:50.547Z,20.1
2022-09-15T10:40:57.818Z,20.1
2022-09-15T10:42:12.331Z,20
2022-09-15T10:43:16.630Z,20
2022-09-15T10:44:28.802Z,20
2022-09-15T10:45:39.217Z,20
2022-09-15T10:46:46.302Z,19.8
2022-09-15T10:48:02.274Z,19.7
2022-09-15T10:49:16.730Z,19.5
2022-09-15T10:50:26.278Z,19.4
2022-09-15T10:51:30.575Z,19.4
2022-09-15T10:52:45.142Z,19.4
2022-09-15T10:53:57.424Z,19.3
2022-09-15T10:55:07.050Z,19.3
2022-09-15T10:56:17.379Z,19.3
2022-09-15T10:58:42.137Z,19.2
2022-09-15T10:59:55.710Z,19.3
2022-09-15T11:01:10.203Z,19.2
2022-09-15T11:02:24.786Z,19.2
2022-09-15T11:03:37.030Z,19.2
2022-09-15T11:04:48.334Z,19
2022-09-15T11:06:00.694Z,19
2022-09-15T11:07:12.904Z,19.1
2022-09-15T11:09:25.852Z,19.2
2022-09-15T11:10:35.126Z,19
2022-09-15T11:11:49.526Z,19
2022-09-15T11:13:01.533Z,19.1
2022-09-15T11:14:11.770Z,19.2
2022-09-15T11:15:26.333Z,19.3
2022-09-15T11:16:40.772Z,19.3
2022-09-15T11:17:56.376Z,19.4
2022-09-15T11:19:09.401Z,19.2
2022-09-15T11:20:16.671Z,19.3
2022-09-15T11:21:31.176Z,19.2
2022-09-15T11:22:35.525Z,19.2
2022-09-15T11:23:45.168Z,19.1
2022-09-15T11:24:55.212Z,19.1
2022-09-15T11:27:08.455Z,19.4
2022-09-15T11:28:20.948Z,19.2
2022-09-15T11:29:25.241Z,19.3
2022-09-15T11:30:35.459Z,19.3
2022-09-15T11:31:39.881Z,19.3
2022-09-15T11:32:44.424Z,19.3
2022-09-15T11:33:51.588Z,19.4
2022-09-15T11:34:59.112Z,19.4
2022-09-15T11:36:06.217Z,19.3
2022-09-15T11:37:10.729Z,19.4
2022-09-15T11:38:18.260Z,19.4
2022-09-15T11:39:33.281Z,19.3
2022-09-15T11:40:37.621Z,19.4
2022-09-15T11:41:46.997Z,19.4
2022-09-15T11:42:54.232Z,19.4
2022-09-15T11:44:01.768Z,19.4
2022-09-15T11:45:14.232Z,19.4
2022-09-15T11:46:18.843Z,19.4
2022-09-15T11:47:26.692Z,19.4
2022-09-15T11:48:31.228Z,19.4
2022-09-15T11:49:40.804Z,19.4
2022-09-15T11:50:53.068Z,19.4
2022-09-15T11:51:57.676Z,19.4
2022-09-15T11:53:01.937Z,19.2
2022-09-15T11:54:11.988Z,19.2
2022-09-15T11:56:40.032Z,19.2
2022-09-15T11:57:47.301Z,19.3
2022-09-15T11:58:51.536Z,19.3
2022-09-15T12:00:05.908Z,19.2
2022-09-15T12:01:14.614Z,19.3
2022-09-15T12:02:22.331Z,19.2
2022-09-15T12:03:27.117Z,19.3
2022-09-15T12:04:31.411Z,19.3
2022-09-15T12:05:35.824Z,19.4
2022-09-15T12:06:44.883Z,19.5
2022-09-15T12:07:49.671Z,19.5
2022-09-15T12:08:54.148Z,19.6
2022-09-15T12:09:59.049Z,19.6
2022-09-15T12:11:06.132Z,19.5
2022-09-15T12:12:15.493Z,19.6
2022-09-15T12:13:20.198Z,19.7
2022-09-15T12:14:25.633Z,19.7
2022-09-15T12:15:36.093Z,19.7
2022-09-15T12:16:40.220Z,19.7
2022-09-15T12:17:44.533Z,19.8
2022-09-15T12:18:51.529Z,19.8
2022-09-15T12:19:58.528Z,19.8
2022-09-15T12:21:02.848Z,19.7
2022-09-15T12:22:17.375Z,19.7
2022-09-15T12:23:27.648Z,19.8
2022-09-15T12:24:35.104Z,19.7
2022-09-15T12:25:42.273Z,19.7
2022-09-15T12:26:56.997Z,19.6
2022-09-15T12:28:01.605Z,19.6
2022-09-15T12:29:13.842Z,19.6
2022-09-15T12:30:26.745Z,19.6
2022-09-15T12:31:38.753Z,19.7
2022-09-15T12:32:43.005Z,19.7
2022-09-15T12:33:47.497Z,19.7
2022-09-15T12:35:02.168Z,19.8
2022-09-15T12:36:11.641Z,19.7
2022-09-15T12:37:26.146Z,19.7
2022-09-15T12:38:40.574Z,19.5
2022-09-15T12:39:45.172Z,19.6
2022-09-15T12:40:49.302Z,19.4
2022-09-15T12:41:56.214Z,19.5
2022-09-15T12:43:00.494Z,19.6
2022-09-15T12:44:05.166Z,19.6
2022-09-15T12:45:17.959Z,19.6
2022-09-15T12:46:27.424Z,19.7
2022-09-15T12:47:31.940Z,19.7
2022-09-15T12:48:36.381Z,19.8
2022-09-15T12:49:41.429Z,19.8
2022-09-15T12:50:45.826Z,19.4
2022-09-15T12:51:53.418Z,19.7
2022-09-15T12:52:57.770Z,19.6
2022-09-15T12:54:12.482Z,19.6
2022-09-15T12:56:23.037Z,19.6
2022-09-15T12:57:27.385Z,19.7
2022-09-15T12:58:31.582Z,19.8
2022-09-15T12:59:41.065Z,19.8
2022-09-15T13:01:07.074Z,19.8
2022-09-15T13:01:50.497Z,19.8
2022-09-15T13:02:55.246Z,19.8
2022-09-15T13:04:00.053Z,19.9
2022-09-15T13:05:04.951Z,19.9
2022-09-15T13:06:09.214Z,19.7
2022-09-15T13:07:19.379Z,19.7
2022-09-15T13:09:30.054Z,19.8
2022-09-15T13:10:34.329Z,19.8
2022-09-15T13:11:38.785Z,19.8
2022-09-15T13:12:43.211Z,19.8
2022-09-15T13:13:47.578Z,19.8
2022-09-15T13:14:59.832Z,19.7
2022-09-15T13:16:04.350Z,19.7
2022-09-15T13:17:08.579Z,19.7
2022-09-15T13:18:17.977Z,19.7
2022-09-15T13:19:22.217Z,19.8
2022-09-15T13:20:31.964Z,19.7
2022-09-15T13:21:36.253Z,19.7
2022-09-15T13:22:40.498Z,19.7
2022-09-15T13:23:45.174Z,19.8
2022-09-15T13:24:49.661Z,19.8
2022-09-15T13:26:04.189Z,19.8
2022-09-15T13:27:08.449Z,19.8
2022-09-15T13:28:12.984Z,19.8
2022-09-15T13:29:17.559Z,19.8
2022-09-15T13:30:22.300Z,19.6
2022-09-15T13:31:31.819Z,19.7
2022-09-15T13:32:44.025Z,19.8
2022-09-15T13:35:16.348Z,19.7
2022-09-15T13:38:41.933Z,19.6
2022-09-15T13:39:56.290Z,19.6
2022-09-15T13:41:08.502Z,19.2
2022-09-15T13:42:20.474Z,19.3
2022-09-15T13:43:38.660Z,19.2
2022-09-15T13:44:46.672Z,19.2
2022-09-15T13:46:01.038Z,18.9
2022-09-15T13:47:07.973Z,18.8
2022-09-15T13:48:14.901Z,18.9
2022-09-15T13:49:24.287Z,18.9
2022-09-15T13:50:36.325Z,19
2022-09-15T13:52:44.104Z,19
2022-09-15T13:54:51.817Z,19
2022-09-15T13:56:06.532Z,19
2022-09-15T13:57:10.937Z,19
2022-09-15T13:59:20.517Z,18.9
2022-09-15T14:00:25.136Z,18.9
2022-09-15T14:01:34.590Z,18.7
2022-09-15T14:02:41.975Z,18.7
2022-09-15T14:03:46.741Z,18.7
2022-09-15T14:04:51.004Z,18.7
2022-09-15T14:05:55.298Z,18.6
2022-09-15T14:07:00.695Z,18.7
2022-09-15T14:08:03.889Z,18.7
2022-09-15T14:09:08.225Z,18.8
2022-09-15T14:10:18.707Z,18.6
2022-09-15T14:11:23.333Z,18.7
2022-09-15T14:12:30.860Z,18.7
2022-09-15T14:13:35.280Z,18.6
2022-09-15T14:14:39.624Z,18.6
2022-09-15T14:15:49.489Z,18.8
2022-09-15T14:17:01.448Z,18.8
2022-09-15T14:18:05.868Z,18.8
2022-09-15T14:19:18.272Z,18.9
2022-09-15T14:20:30.592Z,18.9
2022-09-15T14:21:34.842Z,18.9
2022-09-15T14:22:38.976Z,18.8
2022-09-15T14:23:43.217Z,18.7
2022-09-15T14:24:47.473Z,18.6
2022-09-15T14:25:51.907Z,18.7
2022-09-15T14:26:56.206Z,18.8
2022-09-15T14:28:00.481Z,18.7
2022-09-15T14:29:04.738Z,18.4
2022-09-15T14:30:09.118Z,18.5
2022-09-15T14:31:13.810Z,18.5
2022-09-15T14:32:18.125Z,18.6
2022-09-15T14:33:22.391Z,18.6
2022-09-15T14:34:27.128Z,18.4
2022-09-15T14:35:31.441Z,18.5
2022-09-15T14:36:35.741Z,18.4
2022-09-15T14:37:39.998Z,18.5
2022-09-15T14:38:47.125Z,18.5
2022-09-15T14:40:01.708Z,18.7
2022-09-15T14:41:05.882Z,18.8
2022-09-15T14:42:10.314Z,18.8
2022-09-15T14:43:19.366Z,18.8
2022-09-15T14:46:00.716Z,18.8
2022-09-15T14:46:43.287Z,18.8
2022-09-15T14:47:47.645Z,18.9
2022-09-15T14:48:59.742Z,18.7
2022-09-15T14:50:09.130Z,18.9
2022-09-15T14:51:19.446Z,18.9
2022-09-15T14:52:24.007Z,19
2022-09-15T14:53:28.665Z,19
2022-09-15T14:54:33.157Z,19
2022-09-15T14:55:37.416Z,19
2022-09-15T14:56:51.943Z,18.9
2022-09-15T14:57:56.325Z,18.7
2022-09-15T14:59:03.037Z,18.8
2022-09-15T15:00:07.386Z,18.9
2022-09-15T15:01:13.041Z,18.9
2022-09-15T15:02:23.330Z,19
2022-09-15T15:03:32.797Z,19
2022-09-15T15:04:42.229Z,18.9
2022-09-15T15:05:46.509Z,18.9
2022-09-15T15:06:59.281Z,18.9
2022-09-15T15:08:08.088Z,18.9
2022-09-15T15:09:12.865Z,18.6
2022-09-15T15:10:17.291Z,18.8
2022-09-15T15:11:24.642Z,18.7
2022-09-15T15:12:28.985Z,18.7
2022-09-15T15:14:45.374Z,18.6
2022-09-15T15:15:49.887Z,18.5
2022-09-15T15:16:54.741Z,18.3
2022-09-15T15:17:58.859Z,18.3
2022-09-15T15:19:03.234Z,18.4
2022-09-15T15:20:07.801Z,18.4
2022-09-15T15:21:12.242Z,18.4